This is the latest recevied weather packets stored in our database for station/object N1YZ. If no packets are shown the sender has not sent any weather packets the latest 10 day(s).
| Time | Temp. | Humidity | Pressure | Rain* | Wind** | Luminosity | Snow |
|---|---|---|---|---|---|---|---|
| 1788271969 | 28.33° C | 81% | 1039.8 hPa | 0 mm | - | 300 W/m² | - |
| 1788271668 | 27.22° C | 83% | 1039.6 hPa | 0 mm | - | 39 W/m² | - |
| 1788271366 | 27.22° C | 84% | 1039.6 hPa | 0 mm | - | 40 W/m² | - |
| 1788271061 | 26.67° C | 85% | 1039.6 hPa | 0 mm | - | 28 W/m² | - |
| 1788270756 | 26.67° C | 86% | 1039.6 hPa | 0 mm | - | 27 W/m² | - |
| 1788270451 | 26.67° C | 86% | 1039.7 hPa | 0 mm | - | 26 W/m² | - |
| 1788270146 | 26.11° C | 87% | 1039.6 hPa | 0 mm | - | 77 W/m² | - |
| 1788269846 | 25.56° C | 89% | 1039.8 hPa | 0 mm | - | 71 W/m² | - |
| 1788269545 | 25.56° C | 91% | 1039.7 hPa | 0 mm | - | 41 W/m² | - |
| 1788269244 | 25° C | 91% | 1039.7 hPa | 0 mm | - | 24 W/m² | - |
| 1788268952 | 25° C | 92% | 1039.7 hPa | 0 mm | - | 23 W/m² | - |
| 1788268633 | 25° C | 92% | 1039.8 hPa | 0 mm | - | 22 W/m² | - |
| 1788268333 | 25° C | 93% | 1039.9 hPa | 0 mm | - | 21 W/m² | - |
| 1788268028 | 24.44° C | 93% | 1039.9 hPa | 0 mm | - | 23 W/m² | - |
| 1788267727 | 24.44° C | 94% | 1040 hPa | 0 mm | - | 20 W/m² | - |
| 1788267425 | 24.44° C | 94% | 1039.8 hPa | 0 mm | - | 19 W/m² | - |
| 1788267120 | 23.89° C | 95% | 1039.7 hPa | 0 mm | - | 18 W/m² | - |
| 1788266814 | 23.89° C | 95% | 1039.5 hPa | 0 mm | - | 17 W/m² | - |
| 1788266509 | 23.89° C | 95% | 1039.6 hPa | 0 mm | - | 17 W/m² | - |
| 1788266204 | 23.89° C | 96% | 1039.6 hPa | 0 mm | - | 16 W/m² | - |
| 1788265904 | 23.33° C | 96% | 1039.6 hPa | 0 mm | - | 15 W/m² | - |
| 1788265614 | 23.33° C | 96% | 1039.6 hPa | 0 mm | - | 14 W/m² | - |
| 1788265297 | 23.33° C | 97% | 1039.5 hPa | 0 mm | - | 14 W/m² | - |
| 1788264991 | 23.33° C | 97% | 1039.3 hPa | 0 mm | - | 13 W/m² | - |
| 1788264686 | 23.33° C | 98% | 1039.2 hPa | 0 mm | - | 12 W/m² | - |
* Rain latest hour (hover to see other rain measurements)
** Current wind speed in m/s (hover to see current wind gust speed)